Time;durP1;ratioP1;P1;durP2;ratioP2;P2;SDS_P1;SDS_P2;PMS_P1;PMS_P2;Temp;Humidity;BMP_temperature;BMP_pressure;BME280_temperature;BME280_humidity;BME280_pressure;Samples;Min_cycle;Max_cycle;Signal;HPM_P1;HPM_P2
2021/05/16 00:00:56;;;;;;;46.72;29.27;;;;;;;17.84;nan;99724.09;5036507;28;20025;-81
2021/05/16 00:03:22;;;;;;;41.08;26.92;;;;;;;17.95;nan;99721.81;5016040;28;20085;-82
2021/05/16 00:05:48;;;;;;;48.47;29.77;;;;;;;17.82;nan;99725.38;5030751;28;20041;-81
2021/05/16 00:08:14;;;;;;;42.45;29.88;;;;;;;17.73;nan;99726.59;5013722;28;20031;-81
2021/05/16 00:10:40;;;;;;;49.85;29.90;;;;;;;17.84;nan;99726.00;5031395;28;20049;-81
2021/05/16 00:13:07;;;;;;;52.60;30.95;;;;;;;17.90;nan;99719.72;5030982;28;20037;-81
2021/05/16 00:15:32;;;;;;;48.20;29.58;;;;;;;17.84;nan;99721.38;5031045;28;20033;-82
2021/05/16 00:17:58;;;;;;;44.35;29.35;;;;;;;17.86;nan;99713.03;5030617;28;20040;-81
2021/05/16 00:20:27;;;;;;;44.80;30.08;;;;;;;17.83;nan;99710.72;5012838;28;20037;-81
2021/05/16 00:22:52;;;;;;;48.58;30.73;;;;;;;18.06;nan;99715.72;5031486;28;20057;-81
2021/05/16 00:25:20;;;;;;;52.40;32.08;;;;;;;18.00;nan;99708.41;5039641;28;20041;-81
2021/05/16 00:27:46;;;;;;;47.80;30.63;;;;;;;17.90;nan;99709.66;5016839;28;20417;-81
2021/05/16 00:30:14;;;;;;;52.28;32.15;;;;;;;17.85;nan;99705.91;5032615;28;20025;-81
2021/05/16 00:32:41;;;;;;;47.28;29.42;;;;;;;18.03;nan;99702.56;5014567;28;20032;-81
2021/05/16 00:35:09;;;;;;;50.80;30.90;;;;;;;17.78;nan;99700.44;5031714;28;20033;-81
2021/05/16 00:37:34;;;;;;;47.25;31.02;;;;;;;18.06;nan;99697.56;5030660;28;20036;-81
2021/05/16 00:40:00;;;;;;;53.88;34.08;;;;;;;17.71;nan;99699.59;5030464;28;20029;-81
2021/05/16 00:42:26;;;;;;;56.95;34.75;;;;;;;17.88;nan;99700.06;5031261;28;20025;-81
2021/05/16 00:45:04;;;;;;;58.58;35.33;;;;;;;17.76;nan;99694.38;5034079;28;20037;-82
2021/05/16 00:47:30;;;;;;;59.45;35.80;;;;;;;17.73;nan;99692.06;5034668;28;20495;-82
2021/05/16 00:49:56;;;;;;;58.15;36.33;;;;;;;17.63;nan;99694.34;5033840;28;20029;-82
2021/05/16 00:52:25;;;;;;;55.22;34.42;;;;;;;17.88;nan;99690.00;5032739;28;20036;-82
2021/05/16 00:54:52;;;;;;;63.83;36.17;;;;;;;17.66;nan;99692.06;5031633;28;20037;-81
2021/05/16 00:57:18;;;;;;;71.68;38.88;;;;;;;17.69;nan;99691.66;5035858;28;20033;-81
2021/05/16 00:59:44;;;;;;;68.88;37.53;;;;;;;17.83;nan;99687.06;5034068;28;20113;-82
2021/05/16 01:02:10;;;;;;;66.10;38.65;;;;;;;17.71;nan;99691.44;5033355;28;20472;-82
2021/05/16 01:04:36;;;;;;;69.75;39.15;;;;;;;17.70;nan;99687.06;5032231;28;20021;-82
2021/05/16 01:07:02;;;;;;;71.70;38.55;;;;;;;17.76;nan;99683.50;5031623;28;20029;-81
2021/05/16 01:09:28;;;;;;;72.38;40.75;;;;;;;17.78;nan;99686.03;5030911;28;20393;-82
2021/05/16 01:11:54;;;;;;;76.45;41.13;;;;;;;17.81;nan;99682.88;5033198;28;20072;-82
2021/05/16 01:14:30;;;;;;;72.28;40.72;;;;;;;17.87;nan;99680.16;5033827;28;20069;-82
2021/05/16 01:16:56;;;;;;;74.45;41.85;;;;;;;17.67;nan;99679.31;5013953;28;20045;-82
2021/05/16 01:19:22;;;;;;;74.47;42.88;;;;;;;17.48;nan;99680.09;5012895;28;20029;-82
2021/05/16 01:21:47;;;;;;;74.53;41.50;;;;;;;17.72;nan;99671.34;5030324;28;20103;-81
2021/05/16 01:24:18;;;;;;;69.57;41.25;;;;;;;17.64;nan;99677.00;5018515;28;20025;-82
2021/05/16 01:26:48;;;;;;;86.00;43.58;;;;;;;17.53;nan;99670.28;5032019;28;20055;-82
2021/05/16 01:29:15;;;;;;;85.47;44.03;;;;;;;17.45;nan;99676.78;5032776;28;20033;-82
2021/05/16 01:31:41;;;;;;;84.95;44.80;;;;;;;17.18;nan;99675.03;5031611;28;20041;-80
2021/05/16 01:34:07;;;;;;;77.13;41.97;;;;;;;17.21;nan;99669.19;5033267;28;20025;-81
2021/05/16 01:36:35;;;;;;;94.25;44.70;;;;;;;17.27;nan;99676.53;5033465;28;20434;-81
2021/05/16 01:39:05;;;;;;;85.30;44.35;;;;;;;17.13;nan;99682.94;5032058;28;20072;-81
2021/05/16 01:41:31;;;;;;;75.93;41.05;;;;;;;17.03;nan;99685.22;5015142;28;20083;-81
2021/05/16 01:43:58;;;;;;;86.30;42.05;;;;;;;17.18;nan;99681.31;5034398;28;20025;-80
2021/05/16 01:46:23;;;;;;;75.05;39.45;;;;;;;16.97;nan;99679.56;5032999;28;20049;-80
2021/05/16 01:48:48;;;;;;;82.57;40.78;;;;;;;17.25;nan;99681.31;5024317;28;20037;-81
2021/05/16 01:51:14;;;;;;;75.22;37.67;;;;;;;17.22;nan;99679.84;5037297;28;20029;-81
2021/05/16 01:53:42;;;;;;;78.82;40.28;;;;;;;17.19;nan;99680.25;5017698;28;20022;-80
2021/05/16 01:56:08;;;;;;;77.55;38.70;;;;;;;17.27;nan;99676.53;5034156;28;20033;-81
2021/05/16 01:58:37;;;;;;;80.63;39.22;;;;;;;17.13;nan;99678.34;5018576;28;20044;-81
2021/05/16 02:01:04;;;;;;;77.45;38.28;;;;;;;17.18;nan;99675.03;5016919;28;20037;-81
2021/05/16 02:03:31;;;;;;;78.28;40.20;;;;;;;17.02;nan;99670.81;5034158;28;20028;-81
2021/05/16 02:05:59;;;;;;;85.72;39.70;;;;;;;17.40;nan;99668.38;5033443;28;20021;-81
2021/05/16 02:08:25;;;;;;;74.97;38.03;;;;;;;17.31;nan;99671.50;5032962;28;20488;-80
2021/05/16 02:10:50;;;;;;;82.82;39.35;;;;;;;17.26;nan;99672.13;5032262;28;20034;-81
2021/05/16 02:13:16;;;;;;;78.82;38.70;;;;;;;17.29;nan;99663.56;5038862;28;20029;-81
2021/05/16 02:15:41;;;;;;;76.95;38.30;;;;;;;17.24;nan;99674.22;5019065;28;20603;-81
2021/05/16 02:18:08;;;;;;;87.97;39.83;;;;;;;17.41;nan;99670.06;5017924;28;20112;-81
2021/05/16 02:20:34;;;;;;;87.57;39.50;;;;;;;17.32;nan;99663.13;5035078;28;20089;-81
2021/05/16 02:22:59;;;;;;;76.75;38.70;;;;;;;17.23;nan;99661.66;5034787;28;20604;-81
2021/05/16 02:25:24;;;;;;;85.85;40.72;;;;;;;17.18;nan;99666.88;5015422;28;20393;-81
2021/05/16 02:27:50;;;;;;;73.32;39.17;;;;;;;17.14;nan;99665.59;5033077;28;20021;-81
2021/05/16 02:30:16;;;;;;;81.85;40.60;;;;;;;17.15;nan;99657.25;5032623;28;20139;-81
2021/05/16 02:32:42;;;;;;;78.15;38.92;;;;;;;17.38;nan;99650.59;5030588;28;20032;-81
2021/05/16 02:35:11;;;;;;;78.45;39.80;;;;;;;17.16;nan;99658.94;5034297;28;20029;-80
2021/05/16 02:37:38;;;;;;;70.85;38.33;;;;;;;17.11;nan;99655.16;5036696;28;20502;-80
2021/05/16 02:40:05;;;;;;;73.40;38.65;;;;;;;16.84;nan;99657.78;5035542;28;20034;-80
2021/05/16 02:42:30;;;;;;;73.90;37.78;;;;;;;16.96;nan;99652.63;5034624;28;20025;-80
2021/05/16 02:44:56;;;;;;;86.32;41.58;;;;;;;17.11;nan;99653.28;5034572;28;20040;-81
2021/05/16 02:47:21;;;;;;;77.88;39.53;;;;;;;17.11;nan;99650.56;5015436;28;20033;-80
2021/05/16 02:49:47;;;;;;;74.43;39.33;;;;;;;17.19;nan;99647.66;5014594;28;20076;-81
2021/05/16 02:52:12;;;;;;;78.32;38.92;;;;;;;17.11;nan;99647.00;5031960;28;20664;-80
2021/05/16 02:54:38;;;;;;;70.53;37.85;;;;;;;17.31;nan;99642.44;5012786;28;20037;-80
2021/05/16 02:57:04;;;;;;;91.97;43.83;;;;;;;17.47;nan;99641.22;5031227;28;20128;-80
2021/05/16 02:59:29;;;;;;;76.07;39.90;;;;;;;17.45;nan;99643.31;5031191;28;20531;-80
2021/05/16 03:01:54;;;;;;;74.22;38.15;;;;;;;17.49;nan;99646.47;5013036;28;20049;-81
2021/05/16 03:04:20;;;;;;;81.00;39.97;;;;;;;17.63;nan;99643.53;5034516;28;20091;-81
2021/05/16 03:06:45;;;;;;;81.72;40.83;;;;;;;17.62;nan;99638.31;5017463;28;20033;-81
2021/05/16 03:09:11;;;;;;;93.95;43.47;;;;;;;17.77;nan;99635.38;5035340;28;20563;-82
2021/05/16 03:11:36;;;;;;;73.50;38.70;;;;;;;17.74;nan;99641.22;5034075;28;20030;-82
2021/05/16 03:14:02;;;;;;;87.10;42.00;;;;;;;17.65;nan;99637.88;5014367;28;20494;-82
2021/05/16 03:16:28;;;;;;;89.68;41.80;;;;;;;17.58;nan;99637.88;5032103;28;20117;-81
2021/05/16 03:18:53;;;;;;;90.50;43.78;;;;;;;17.77;nan;99632.66;5029732;28;20432;-82
2021/05/16 03:21:18;;;;;;;85.13;41.03;;;;;;;17.83;nan;99634.56;5030822;28;20037;-82
2021/05/16 03:23:44;;;;;;;97.70;42.63;;;;;;;17.82;nan;99633.75;5033603;28;20041;-82
2021/05/16 03:26:09;;;;;;;78.82;41.80;;;;;;;17.75;nan;99637.47;5036226;28;20388;-82
2021/05/16 03:28:35;;;;;;;76.63;39.53;;;;;;;17.67;nan;99633.09;5018636;28;20030;-82
2021/05/16 03:31:00;;;;;;;85.15;43.15;;;;;;;17.56;nan;99626.38;5016208;28;20646;-82
2021/05/16 03:33:26;;;;;;;92.20;42.65;;;;;;;17.53;nan;99628.69;5032914;28;20104;-82
2021/05/16 03:35:52;;;;;;;93.32;43.50;;;;;;;17.47;nan;99633.06;5032427;28;20033;-82
2021/05/16 03:38:17;;;;;;;91.20;41.58;;;;;;;17.65;nan;99627.00;5031956;28;20436;-82
2021/05/16 03:40:43;;;;;;;85.90;42.15;;;;;;;17.62;nan;99633.69;5013139;28;20103;-82
2021/05/16 03:43:09;;;;;;;79.85;40.13;;;;;;;17.83;nan;99629.97;5030478;28;20065;-82
2021/05/16 03:45:34;;;;;;;91.00;41.17;;;;;;;17.84;nan;99615.31;5034540;28;20042;-81
2021/05/16 03:48:00;;;;;;;88.82;42.88;;;;;;;17.64;nan;99625.34;5033117;28;20632;-82
2021/05/16 03:50:25;;;;;;;98.45;43.55;;;;;;;17.71;nan;99617.19;5017210;28;20055;-82
2021/05/16 03:52:51;;;;;;;99.20;44.50;;;;;;;17.46;nan;99618.63;5037723;28;20033;-82
2021/05/16 03:55:18;;;;;;;77.20;39.88;;;;;;;17.59;nan;99622.41;5015885;28;20044;-82
2021/05/16 03:57:44;;;;;;;102.25;42.47;;;;;;;17.35;nan;99632.00;5033370;28;20040;-82
2021/05/16 04:00:10;;;;;;;90.03;42.92;;;;;;;17.32;nan;99625.09;5014403;28;20034;-81
2021/05/16 04:02:35;;;;;;;103.93;44.38;;;;;;;17.36;nan;99634.53;5031734;28;20029;-82
2021/05/16 04:05:01;;;;;;;106.10;44.42;;;;;;;17.46;nan;99626.78;5030909;28;20044;-81
2021/05/16 04:07:26;;;;;;;88.28;41.72;;;;;;;17.48;nan;99642.03;5033173;28;20041;-82
2021/05/16 04:09:52;;;;;;;91.88;42.00;;;;;;;17.69;nan;99630.97;5034675;28;20083;-82
2021/05/16 04:12:17;;;;;;;98.20;43.00;;;;;;;17.76;nan;99639.16;5014567;28;20040;-82
2021/05/16 04:14:44;;;;;;;90.30;42.45;;;;;;;17.56;nan;99641.84;5030009;28;20040;-82
2021/05/16 04:17:10;;;;;;;93.47;43.78;;;;;;;17.30;nan;99650.81;5017638;28;20029;-82
2021/05/16 04:19:36;;;;;;;103.47;45.58;;;;;;;17.42;nan;99641.84;5015190;28;20440;-82
2021/05/16 04:22:01;;;;;;;94.18;42.15;;;;;;;17.54;nan;99646.66;5030313;28;20135;-82
2021/05/16 04:24:26;;;;;;;102.35;43.72;;;;;;;17.32;nan;99641.41;5031670;28;20060;-82
2021/05/16 04:26:52;;;;;;;95.95;43.35;;;;;;;17.68;nan;99640.19;5013889;28;20029;-82
2021/05/16 04:29:17;;;;;;;115.03;46.28;;;;;;;17.53;nan;99639.56;5016942;28;20121;-82
2021/05/16 04:31:42;;;;;;;87.30;42.40;;;;;;;17.56;nan;99633.69;5033101;28;20033;-82
2021/05/16 04:34:08;;;;;;;98.80;43.90;;;;;;;17.66;nan;99640.41;5014060;28;20042;-82
2021/05/16 04:36:33;;;;;;;102.80;44.88;;;;;;;17.60;nan;99632.22;5031612;28;20030;-81
2021/05/16 04:38:58;;;;;;;99.35;42.78;;;;;;;17.66;nan;99634.97;5012932;28;20041;-81
2021/05/16 04:41:24;;;;;;;115.63;47.60;;;;;;;17.62;nan;99633.69;5019590;28;20121;-81
2021/05/16 04:43:49;;;;;;;96.47;42.53;;;;;;;17.47;nan;99635.78;5033036;28;20030;-81
2021/05/16 04:46:15;;;;;;;85.95;43.25;;;;;;;17.45;nan;99638.72;5032918;28;20040;-81
2021/05/16 04:48:40;;;;;;;95.47;42.45;;;;;;;17.54;nan;99636.63;5013908;28;20045;-81
2021/05/16 04:51:06;;;;;;;93.95;43.85;;;;;;;17.51;nan;99637.06;5034437;28;20136;-81
2021/05/16 04:53:34;;;;;;;102.50;44.78;;;;;;;17.52;nan;99643.31;5033348;28;20037;-82
2021/05/16 04:56:00;;;;;;;80.57;39.97;;;;;;;17.55;nan;99632.88;5032237;28;20033;-81
2021/05/16 04:58:26;;;;;;;87.43;42.53;;;;;;;17.67;nan;99636.63;5012594;28;20033;-81
2021/05/16 05:00:52;;;;;;;96.38;46.20;;;;;;;17.66;nan;99639.53;5012185;28;20029;-82
2021/05/16 05:03:17;;;;;;;96.15;44.53;;;;;;;17.65;nan;99640.59;5030539;28;20312;-82
2021/05/16 05:05:46;;;;;;;97.82;44.03;;;;;;;17.59;nan;99641.44;5032330;28;20036;-82
2021/05/16 05:08:11;;;;;;;81.97;41.33;;;;;;;17.54;nan;99630.34;5035939;28;20021;-82
2021/05/16 05:10:37;;;;;;;85.53;42.15;;;;;;;17.49;nan;99630.97;5035751;28;20037;-81
2021/05/16 05:13:03;;;;;;;80.43;40.60;;;;;;;17.54;nan;99631.19;5034169;28;20468;-81
2021/05/16 05:15:28;;;;;;;88.15;43.25;;;;;;;17.74;nan;99635.78;5014479;28;20396;-81
2021/05/16 05:17:53;;;;;;;85.05;41.47;;;;;;;18.01;nan;99633.94;5018525;28;20095;-81
2021/05/16 05:20:19;;;;;;;78.10;40.85;;;;;;;18.03;nan;99627.22;5036896;28;20056;-81
2021/05/16 05:22:44;;;;;;;75.20;37.92;;;;;;;17.96;nan;99634.53;5033980;28;20064;-81
2021/05/16 05:25:10;;;;;;;75.72;38.05;;;;;;;17.86;nan;99639.59;5034916;28;20396;-81
2021/05/16 05:27:35;;;;;;;72.15;38.00;;;;;;;17.67;nan;99636.63;5034017;28;20072;-81
2021/05/16 05:30:02;;;;;;;68.53;35.55;;;;;;;18.09;nan;99640.00;5033531;28;20029;-81
2021/05/16 05:32:27;;;;;;;73.45;35.78;;;;;;;18.12;nan;99641.44;5015371;28;20076;-81
2021/05/16 05:34:52;;;;;;;67.63;34.67;;;;;;;18.02;nan;99635.59;5022125;28;20152;-83
2021/05/16 05:37:17;;;;;;;61.88;32.95;;;;;;;17.80;nan;99635.00;5018646;28;20060;-82
2021/05/16 05:39:43;;;;;;;58.20;32.17;;;;;;;17.70;nan;99640.81;5019390;28;20477;-82
2021/05/16 05:42:08;;;;;;;58.00;30.80;;;;;;;18.17;nan;99632.66;5018359;28;20068;-82
2021/05/16 05:44:35;;;;;;;64.35;32.53;;;;;;;18.12;nan;99635.97;5016717;28;20477;-82
2021/05/16 05:47:00;;;;;;;71.60;34.60;;;;;;;17.94;nan;99633.06;5034988;28;20072;-81
2021/05/16 05:49:25;;;;;;;68.97;33.38;;;;;;;18.02;nan;99633.69;5016557;28;20079;-81
2021/05/16 05:51:51;;;;;;;71.07;34.55;;;;;;;18.08;nan;99634.75;5034311;28;20025;-80
2021/05/16 05:54:16;;;;;;;56.70;30.73;;;;;;;18.26;nan;99634.91;5034214;28;20030;-80
2021/05/16 05:56:41;;;;;;;63.40;33.70;;;;;;;18.37;nan;99633.44;5032604;28;20032;-81
2021/05/16 05:59:08;;;;;;;66.07;32.30;;;;;;;18.55;nan;99633.59;5033066;28;20033;-80
2021/05/16 06:01:33;;;;;;;71.97;35.58;;;;;;;18.38;nan;99637.81;5032195;28;20026;-80
2021/05/16 06:03:59;;;;;;;61.35;32.13;;;;;;;18.61;nan;99631.91;5035642;28;20037;-81
2021/05/16 06:06:24;;;;;;;63.20;33.40;;;;;;;18.43;nan;99634.47;5026703;28;20025;-80
2021/05/16 06:08:52;;;;;;;60.45;32.95;;;;;;;18.75;nan;99627.25;5014325;28;20037;-80
2021/05/16 06:11:18;;;;;;;72.28;36.33;;;;;;;18.83;nan;99629.75;5029165;28;20036;-80
2021/05/16 06:13:43;;;;;;;64.05;34.03;;;;;;;18.77;nan;99626.00;5030329;28;20026;-80
2021/05/16 06:16:08;;;;;;;54.78;31.27;;;;;;;18.88;nan;99626.34;5024920;28;20112;-80
2021/05/16 06:18:35;;;;;;;71.93;36.63;;;;;;;19.00;nan;99624.59;5029762;28;20401;-80
2021/05/16 06:21:03;;;;;;;70.10;36.85;;;;;;;18.60;nan;99630.22;5028693;28;20029;-80
2021/05/16 06:23:35;;;;;;;73.47;38.25;;;;;;;18.73;nan;99626.63;5030585;28;20037;-81
2021/05/16 06:26:01;;;;;;;77.45;39.03;;;;;;;18.97;nan;99625.03;5030033;28;20037;-81
2021/05/16 06:28:26;;;;;;;66.35;35.92;;;;;;;19.20;nan;99628.06;5031879;28;20022;-80
2021/05/16 06:30:51;;;;;;;70.55;37.25;;;;;;;19.22;nan;99631.41;5031454;28;20021;-80
2021/05/16 06:33:17;;;;;;;79.05;38.17;;;;;;;18.99;nan;99637.41;5030314;28;20497;-80
2021/05/16 06:35:42;;;;;;;68.45;36.53;;;;;;;19.44;nan;99637.34;5021140;28;20025;-80
2021/05/16 06:38:07;;;;;;;65.72;35.38;;;;;;;19.67;nan;99635.94;5029327;28;20065;-80
2021/05/16 06:40:34;;;;;;;63.33;34.78;;;;;;;19.54;nan;99636.03;5029101;28;20433;-80
2021/05/16 06:43:02;;;;;;;62.25;34.95;;;;;;;19.55;nan;99632.22;5028616;28;20033;-81
2021/05/16 06:45:29;;;;;;;61.05;32.92;;;;;;;19.65;nan;99636.19;5035143;28;20429;-81
2021/05/16 06:47:57;;;;;;;58.00;31.92;;;;;;;19.51;nan;99632.66;5045448;28;20029;-81
2021/05/16 06:50:25;;;;;;;69.20;35.25;;;;;;;19.54;nan;99634.13;5015669;28;20053;-81
2021/05/16 06:52:54;;;;;;;67.28;36.03;;;;;;;19.64;nan;99634.47;5030532;28;20025;-81
2021/05/16 06:55:19;;;;;;;56.65;34.20;;;;;;;19.75;nan;99638.41;5029580;28;20473;-81
2021/05/16 06:57:45;;;;;;;59.60;33.75;;;;;;;19.68;nan;99638.47;5028966;28;20037;-80
2021/05/16 07:00:12;;;;;;;57.30;33.75;;;;;;;19.69;nan;99636.56;5028244;28;20037;-80
2021/05/16 07:02:37;;;;;;;58.45;32.92;;;;;;;19.51;nan;99632.66;5028497;28;20468;-80
2021/05/16 07:05:13;;;;;;;58.60;33.50;;;;;;;19.51;nan;99637.28;5030239;28;20026;-80
2021/05/16 07:07:39;;;;;;;58.55;34.28;;;;;;;19.70;nan;99628.13;5022041;28;20037;-80
2021/05/16 07:10:06;;;;;;;60.55;33.63;;;;;;;19.42;nan;99628.53;5033168;28;20139;-81
2021/05/16 07:12:31;;;;;;;65.28;34.30;;;;;;;19.57;nan;99633.69;5029218;28;20018;-80
2021/05/16 07:14:56;;;;;;;55.30;32.25;;;;;;;19.66;nan;99632.38;5030042;28;20124;-80
2021/05/16 07:17:27;;;;;;;54.10;33.28;;;;;;;19.81;nan;99632.06;5029911;28;20069;-81
2021/05/16 07:19:53;;;;;;;55.90;37.25;;;;;;;19.79;nan;99641.50;5029182;28;20473;-81
2021/05/16 07:22:18;;;;;;;54.17;34.03;;;;;;;20.02;nan;99633.53;5028122;28;20121;-81
2021/05/16 07:24:43;;;;;;;52.45;32.17;;;;;;;20.06;nan;99633.94;5044587;28;20484;-81
2021/05/16 07:27:09;;;;;;;50.95;32.75;;;;;;;20.24;nan;99630.38;5030526;28;20025;-81
2021/05/16 07:29:35;;;;;;;51.35;32.60;;;;;;;20.12;nan;99635.75;5030107;28;20044;-80
2021/05/16 07:32:03;;;;;;;52.78;33.25;;;;;;;20.09;nan;99634.31;5034669;28;20048;-80
2021/05/16 07:34:31;;;;;;;48.40;30.77;;;;;;;20.41;nan;99636.91;5031914;28;20037;-81
2021/05/16 07:37:00;;;;;;;50.03;32.70;;;;;;;20.13;nan;99637.41;5031275;28;21882;-81
2021/05/16 07:39:29;;;;;;;53.22;32.33;;;;;;;20.52;nan;99636.19;5029197;28;20193;-81
2021/05/16 07:41:54;;;;;;;49.85;31.48;;;;;;;20.50;nan;99634.72;5031397;28;20026;-81
2021/05/16 07:44:22;;;;;;;46.05;30.88;;;;;;;20.57;nan;99633.63;5027426;28;20037;-81
2021/05/16 07:46:47;;;;;;;50.00;33.50;;;;;;;20.43;nan;99640.25;5026331;28;20116;-81
2021/05/16 07:49:13;;;;;;;46.67;32.63;;;;;;;20.32;nan;99635.53;5029621;28;20081;-81
2021/05/16 07:51:38;;;;;;;48.03;32.70;;;;;;;20.36;nan;99634.88;5044829;28;20138;-81
2021/05/16 07:54:03;;;;;;;51.75;34.90;;;;;;;20.94;nan;99632.75;5036155;28;20048;-81
2021/05/16 07:56:29;;;;;;;53.28;37.47;;;;;;;20.66;nan;99642.31;5046501;28;20029;-81
2021/05/16 07:58:54;;;;;;;49.90;34.75;;;;;;;20.72;nan;99646.03;5030907;28;20029;-81
2021/05/16 08:01:19;;;;;;;48.30;33.50;;;;;;;20.84;nan;99642.28;5029103;28;20115;-80
2021/05/16 08:03:46;;;;;;;45.58;33.00;;;;;;;20.70;nan;99650.91;5029719;28;20037;-81
2021/05/16 08:06:12;;;;;;;45.08;30.73;;;;;;;21.27;nan;99645.94;5030043;28;20032;-81
2021/05/16 08:08:42;;;;;;;39.17;28.80;;;;;;;20.78;nan;99642.38;5028393;28;20029;-81
2021/05/16 08:11:08;;;;;;;45.13;30.55;;;;;;;20.88;nan;99637.22;5027820;28;20564;-81
2021/05/16 08:13:34;;;;;;;39.08;28.50;;;;;;;20.93;nan;99640.09;5029754;28;20111;-81
2021/05/16 08:15:59;;;;;;;39.47;29.73;;;;;;;20.87;nan;99647.31;5031235;28;20029;-81
2021/05/16 08:18:25;;;;;;;45.08;31.20;;;;;;;21.28;nan;99644.88;5030965;28;20071;-81
2021/05/16 08:20:51;;;;;;;42.30;28.45;;;;;;;21.36;nan;99641.81;5026769;28;20484;-81
2021/05/16 08:23:16;;;;;;;41.92;29.73;;;;;;;21.16;nan;99638.53;5035990;28;20029;-81
2021/05/16 08:25:42;;;;;;;34.30;26.25;;;;;;;21.16;nan;99641.28;5028735;28;20029;-81
2021/05/16 08:28:09;;;;;;;35.63;26.88;;;;;;;20.99;nan;99639.16;5028156;28;20444;-81
2021/05/16 08:30:34;;;;;;;33.75;26.13;;;;;;;21.30;nan;99643.59;5025734;28;20435;-81
2021/05/16 08:32:59;;;;;;;36.53;27.48;;;;;;;21.41;nan;99646.63;5032209;28;20033;-81
2021/05/16 08:35:25;;;;;;;37.03;28.00;;;;;;;21.07;nan;99641.59;5018449;28;20030;-81
2021/05/16 08:37:50;;;;;;;38.20;27.60;;;;;;;21.60;nan;99633.69;5034180;28;20037;-81
2021/05/16 08:40:17;;;;;;;35.78;24.77;;;;;;;21.34;nan;99646.69;5029980;28;20036;-81
2021/05/16 08:42:43;;;;;;;35.05;25.35;;;;;;;21.23;nan;99639.28;5027647;28;20075;-81
2021/05/16 08:45:11;;;;;;;33.97;25.40;;;;;;;21.05;nan;99632.78;5037051;28;20025;-81
2021/05/16 08:47:39;;;;;;;35.10;25.48;;;;;;;21.26;nan;99638.81;5009845;28;20541;-82
2021/05/16 08:50:08;;;;;;;34.72;25.08;;;;;;;21.49;nan;99636.19;5029054;28;20052;-82
2021/05/16 08:52:33;;;;;;;37.63;27.52;;;;;;;21.65;nan;99631.09;5016447;28;20025;-81
2021/05/16 08:54:58;;;;;;;36.78;27.73;;;;;;;21.35;nan;99637.41;5034092;28;20017;-81
2021/05/16 08:57:24;;;;;;;37.75;27.67;;;;;;;21.03;nan;99634.09;5033653;28;20033;-81
2021/05/16 09:00:20;;;;;;;35.63;26.40;;;;;;;21.34;nan;99633.00;5036954;28;20029;-82
2021/05/16 09:03:09;;;;;;;34.25;24.98;;;;;;;21.09;nan;99625.78;5017013;28;20033;-81
2021/05/16 09:05:50;;;;;;;34.58;24.83;;;;;;;21.55;nan;99627.03;5030928;28;20393;-81
2021/05/16 09:08:26;;;;;;;35.67;25.52;;;;;;;21.80;nan;99620.53;5030709;28;20113;-81
2021/05/16 09:10:57;;;;;;;30.92;23.25;;;;;;;21.62;nan;99628.81;5015065;28;20029;-81
2021/05/16 09:13:24;;;;;;;31.23;22.35;;;;;;;21.73;nan;99628.00;5024812;28;20044;-81
2021/05/16 09:16:02;;;;;;;33.13;22.60;;;;;;;21.79;nan;99621.56;5034243;28;20038;-81
2021/05/16 09:19:05;;;;;;;28.98;23.13;;;;;;;21.76;nan;99625.63;5033790;28;20511;-82
2021/05/16 09:21:35;;;;;;;35.78;24.45;;;;;;;21.73;nan;99631.59;5035550;28;20070;-82
2021/05/16 09:24:09;;;;;;;33.83;23.20;;;;;;;21.88;nan;99630.28;5031213;28;20489;-81
2021/05/16 09:26:37;;;;;;;34.38;23.88;;;;;;;21.95;nan;99637.31;5010632;28;20030;-81
2021/05/16 09:29:22;;;;;;;29.63;23.13;;;;;;;22.00;nan;99629.19;5016583;28;20397;-81
2021/05/16 09:31:48;;;;;;;32.30;24.63;;;;;;;21.96;nan;99632.66;5030432;28;20420;-81
2021/05/16 09:34:14;;;;;;;33.03;23.80;;;;;;;22.20;nan;99628.06;5031385;28;20036;-82
2021/05/16 09:36:41;;;;;;;33.40;22.88;;;;;;;22.31;nan;99629.94;5012228;28;20117;-81
2021/05/16 09:39:37;;;;;;;31.98;24.08;;;;;;;22.11;nan;99633.03;5007731;28;20455;-81
2021/05/16 09:42:13;;;;;;;34.63;25.33;;;;;;;22.67;nan;99634.28;5015366;28;20069;-81
2021/05/16 09:44:42;;;;;;;25.55;21.77;;;;;;;22.59;nan;99642.03;4992346;28;20033;-82
2021/05/16 09:47:13;;;;;;;26.40;21.85;;;;;;;22.59;nan;99631.06;5021936;28;20057;-81
2021/05/16 09:49:41;;;;;;;;;;;;;;;22.14;nan;99627.06;5036167;28;20037;-81
2021/05/16 09:52:17;;;;;;;24.25;18.90;;;;;;;21.74;nan;99626.94;5029968;28;19932;-81
2021/05/16 09:54:56;;;;;;;23.70;17.58;;;;;;;21.75;nan;99625.84;5001639;28;20064;-82
2021/05/16 09:57:22;;;;;;;26.48;16.42;;;;;;;21.58;nan;99625.72;5035340;28;20126;-81
2021/05/16 09:59:48;;;;;;;18.63;14.18;;;;;;;21.81;nan;99622.19;5031111;28;20033;-81
2021/05/16 10:02:15;;;;;;;15.95;9.82;;;;;;;21.84;nan;99620.88;5028932;28;20021;-81
2021/05/16 10:04:40;;;;;;;10.65;7.30;;;;;;;21.65;nan;99620.16;5029861;28;20420;-81
2021/05/16 10:07:10;;;;;;;8.82;5.78;;;;;;;22.09;nan;99615.16;5029507;28;20076;-81
2021/05/16 10:09:35;;;;;;;11.32;5.85;;;;;;;21.81;nan;99619.44;5029116;28;20041;-81
2021/05/16 10:12:07;;;;;;;14.07;6.43;;;;;;;22.07;nan;99629.09;5031057;28;20021;-81
2021/05/16 10:14:41;;;;;;;14.30;6.10;;;;;;;21.50;nan;99623.31;5015610;28;20529;-81
2021/05/16 10:17:17;;;;;;;10.80;8.02;;;;;;;21.37;nan;99626.28;5037258;28;20034;-81
2021/05/16 10:19:44;;;;;;;16.50;10.65;;;;;;;21.53;nan;99623.69;5032236;28;20397;-81
2021/05/16 10:22:17;;;;;;;12.57;9.88;;;;;;;21.64;nan;99618.47;5030588;28;20029;-81
2021/05/16 10:24:49;;;;;;;16.67;11.45;;;;;;;21.53;nan;99610.00;5029301;28;20454;-81
2021/05/16 10:27:22;;;;;;;19.38;13.70;;;;;;;21.37;nan;99615.34;5037683;28;20102;-81
2021/05/16 10:29:56;;;;;;;19.23;13.57;;;;;;;21.03;nan;99618.53;5040855;28;20112;-81
2021/05/16 10:32:32;;;;;;;18.52;12.70;;;;;;;21.09;nan;99611.28;5032127;28;20033;-81
2021/05/16 10:35:02;;;;;;;18.45;11.18;;;;;;;21.40;nan;99599.28;5035696;28;20175;-81
2021/05/16 10:37:44;;;;;;;15.65;9.50;;;;;;;21.51;nan;99606.66;5038546;28;20040;-81
2021/05/16 10:40:12;;;;;;;12.30;8.30;;;;;;;21.23;nan;99606.44;5031794;28;20386;-81
2021/05/16 10:42:43;;;;;;;10.23;8.25;;;;;;;21.33;nan;99601.25;5028211;28;20021;-81
2021/05/16 10:45:16;;;;;;;9.32;7.43;;;;;;;21.27;nan;99602.16;5028866;28;20500;-81
2021/05/16 10:47:50;;;;;;;8.35;7.05;;;;;;;21.25;nan;99599.69;5030276;28;20037;-81
2021/05/16 10:50:27;;;;;;;6.85;5.28;;;;;;;21.30;nan;99605.31;5033266;28;20029;-82
2021/05/16 10:53:02;;;;;;;6.38;5.35;;;;;;;21.66;nan;99599.91;5031107;28;20027;-81
2021/05/16 10:55:33;;;;;;;8.57;5.40;;;;;;;21.71;nan;99605.53;5040677;28;20033;-81
2021/05/16 10:57:59;;;;;;;;;;;;;;;21.50;nan;99612.38;5033861;28;20041;-81
2021/05/16 11:00:26;;;;;;;9.32;6.20;;;;;;;21.72;nan;99604.44;5031044;28;19948;-81
2021/05/16 11:03:04;;;;;;;17.83;6.20;;;;;;;21.48;nan;99609.88;5030429;28;20028;-81
2021/05/16 11:08:31;;;;;;;11.63;7.47;;;;;;;21.69;nan;99607.66;5031009;28;20044;-81
2021/05/16 11:10:58;;;;;;;15.45;7.65;;;;;;;21.59;nan;99604.66;4999164;28;20037;-81
2021/05/16 11:13:27;;;;;;;16.20;7.88;;;;;;;21.97;nan;99605.03;5021132;28;20040;-81
2021/05/16 11:15:54;;;;;;;13.20;8.35;;;;;;;22.38;nan;99602.44;5038100;28;20092;-81
2021/05/16 11:18:22;;;;;;;15.00;8.88;;;;;;;22.53;nan;99590.94;5015599;28;20025;-81
2021/05/16 11:20:56;;;;;;;16.85;8.85;;;;;;;23.07;nan;99586.00;5031387;28;20029;-81
2021/05/16 11:23:23;;;;;;;11.35;8.55;;;;;;;23.33;nan;99585.41;5029607;28;20068;-81
2021/05/16 11:25:56;;;;;;;13.38;8.40;;;;;;;24.02;nan;99570.59;5028847;28;20476;-81
2021/05/16 11:28:23;;;;;;;16.88;8.50;;;;;;;24.46;nan;99579.75;5031013;28;20025;-82
2021/05/16 11:30:50;;;;;;;16.02;9.00;;;;;;;24.68;nan;99582.50;5030935;28;20030;-81
2021/05/16 11:33:31;;;;;;;11.32;8.80;;;;;;;24.45;nan;99572.56;5029941;28;20555;-81
2021/05/16 11:36:06;;;;;;;13.30;9.63;;;;;;;24.47;nan;99578.66;5031464;28;20055;-81
2021/05/16 11:38:33;;;;;;;14.48;9.55;;;;;;;24.20;nan;99566.72;5028243;28;20052;-82